Time,TemperatureF,DewpointF,PressureIn,WindDirection,WindDirectionDegrees,WindSpeedMPH,WindSpeedGustMPH,Humidity,HourlyPrecipIn,Conditions,Clouds,dailyrainin,SoftwareType,DateUTC
2013-06-04 00:01:00,64.9,55.8,30.06,ESE,113,0.0,0.0,72,0.00,,,0.00,WUHU216TE923,2013-06-04 04:01:00,
2013-06-04 00:02:00,64.9,56.2,30.06,ESE,113,0.0,0.0,73,0.00,,,0.00,WUHU216TE923,2013-06-04 04:02:00,
2013-06-04 00:07:00,64.8,56.1,30.11,ESE,113,0.0,0.0,73,0.00,,,0.00,WUHU216TE923,2013-06-04 04:07:00,
2013-06-04 00:12:00,64.8,56.1,30.11,ESE,113,0.0,0.0,73,0.00,,,0.00,WUHU216TE923,2013-06-04 04:12:00,
2013-06-04 00:17:00,64.8,56.1,30.11,ESE,113,0.0,0.0,73,0.00,,,0.00,WUHU216TE923,2013-06-04 04:17:00,
2013-06-04 00:22:00,64.4,55.7,30.11,ESE,113,0.0,0.0,73,0.00,,,0.00,WUHU216TE923,2013-06-04 04:22:00,
2013-06-04 00:27:00,64.0,55.7,30.10,ESE,113,0.0,0.0,74,0.00,,,0.00,WUHU216TE923,2013-06-04 04:27:00,
2013-06-04 00:32:00,64.0,55.7,30.10,ESE,113,0.0,0.0,74,0.00,,,0.00,WUHU216TE923,2013-06-04 04:32:00,
2013-06-04 00:37:00,64.0,55.7,30.10,ESE,113,0.0,0.0,74,0.00,,,0.00,WUHU216TE923,2013-06-04 04:37:00,
2013-06-04 00:42:00,63.7,55.4,30.10,ESE,113,0.0,0.0,74,0.00,,,0.00,WUHU216TE923,2013-06-04 04:42:00,
2013-06-04 00:47:00,63.7,55.4,30.08,ESE,113,0.0,0.0,74,0.00,,,0.00,WUHU216TE923,2013-06-04 04:47:00,
2013-06-04 00:52:00,63.5,55.2,30.08,ESE,113,0.0,0.0,74,0.00,,,0.00,WUHU216TE923,2013-06-04 04:52:00,
2013-06-04 00:57:00,63.5,55.5,30.08,ESE,113,0.0,0.0,75,0.00,,,0.00,WUHU216TE923,2013-06-04 04:57:00,
2013-06-04 01:02:00,63.5,55.5,30.08,ESE,113,0.0,0.0,75,0.00,,,0.00,WUHU216TE923,2013-06-04 05:02:00,
2013-06-04 01:07:00,63.3,55.4,30.13,ESE,113,0.0,0.0,75,0.00,,,0.00,WUHU216TE923,2013-06-04 05:07:00,
2013-06-04 01:12:00,63.1,55.2,30.13,ESE,113,0.0,0.0,75,0.00,,,0.00,WUHU216TE923,2013-06-04 05:12:00,
2013-06-04 01:17:00,63.1,55.2,30.13,ESE,113,0.0,0.0,75,0.00,,,0.00,WUHU216TE923,2013-06-04 05:17:00,
2013-06-04 01:22:00,63.1,55.2,30.13,ESE,113,0.0,0.0,75,0.00,,,0.00,WUHU216TE923,2013-06-04 05:22:00,
2013-06-04 01:27:00,63.0,55.1,30.14,ESE,113,0.0,0.0,75,0.00,,,0.00,WUHU216TE923,2013-06-04 05:27:00,
2013-06-04 01:32:00,63.0,55.1,30.14,ESE,113,0.0,0.0,75,0.00,,,0.00,WUHU216TE923,2013-06-04 05:32:00,
2013-06-04 01:37:00,62.8,54.9,30.14,ESE,113,0.0,0.0,75,0.00,,,0.00,WUHU216TE923,2013-06-04 05:37:00,
2013-06-04 01:42:00,62.6,54.7,30.14,ESE,113,0.0,0.0,75,0.00,,,0.00,WUHU216TE923,2013-06-04 05:42:00,
2013-06-04 01:47:00,62.6,54.7,30.10,ESE,113,0.0,0.0,75,0.00,,,0.00,WUHU216TE923,2013-06-04 05:47:00,
2013-06-04 01:52:00,62.4,54.8,30.10,ESE,113,0.0,0.0,76,0.00,,,0.00,WUHU216TE923,2013-06-04 05:52:00,
2013-06-04 01:57:00,62.2,54.6,30.10,ESE,113,0.0,0.0,76,0.00,,,0.00,WUHU216TE923,2013-06-04 05:57:00,
2013-06-04 02:02:00,62.2,54.6,30.10,ESE,113,0.0,0.0,76,0.00,,,0.00,WUHU216TE923,2013-06-04 06:02:00,
2013-06-04 02:07:00,62.1,54.5,30.15,ESE,113,0.0,0.0,76,0.00,,,0.00,WUHU216TE923,2013-06-04 06:07:00,
2013-06-04 02:12:00,61.9,54.4,30.15,ESE,113,0.0,0.0,76,0.00,,,0.00,WUHU216TE923,2013-06-04 06:12:00,
2013-06-04 02:17:00,61.9,54.4,30.15,ESE,113,0.0,0.0,76,0.00,,,0.00,WUHU216TE923,2013-06-04 06:17:00,
2013-06-04 02:22:00,61.9,54.4,30.15,ESE,113,0.0,0.0,76,0.00,,,0.00,WUHU216TE923,2013-06-04 06:22:00,
2013-06-04 02:27:00,61.7,54.2,30.16,ESE,113,0.0,0.0,76,0.00,,,0.00,WUHU216TE923,2013-06-04 06:27:00,
2013-06-04 02:32:00,61.5,54.0,30.16,ESE,113,0.0,0.0,76,0.00,,,0.00,WUHU216TE923,2013-06-04 06:32:00,
2013-06-04 02:37:00,61.5,54.0,30.16,ESE,113,0.0,0.0,76,0.00,,,0.00,WUHU216TE923,2013-06-04 06:37:00,
2013-06-04 02:42:00,61.3,53.8,30.16,ESE,113,0.0,0.0,76,0.00,,,0.00,WUHU216TE923,2013-06-04 06:42:00,
2013-06-04 02:47:00,61.3,53.8,30.18,ESE,113,0.0,0.0,76,0.00,,,0.00,WUHU216TE923,2013-06-04 06:47:00,
2013-06-04 02:52:00,61.3,53.8,30.18,ESE,113,0.0,0.0,76,0.00,,,0.00,WUHU216TE923,2013-06-04 06:52:00,
2013-06-04 02:57:00,61.2,53.7,30.18,ESE,113,0.0,0.0,76,0.00,,,0.00,WUHU216TE923,2013-06-04 06:57:00,
2013-06-04 03:02:00,61.2,53.7,30.18,ESE,113,0.0,0.0,76,0.00,,,0.00,WUHU216TE923,2013-06-04 07:02:00,
2013-06-04 03:07:00,61.2,54.0,30.17,ESE,113,0.0,0.0,77,0.00,,,0.00,WUHU216TE923,2013-06-04 07:07:00,
2013-06-04 03:12:00,61.2,54.0,30.17,ESE,113,0.0,0.0,77,0.00,,,0.00,WUHU216TE923,2013-06-04 07:12:00,
2013-06-04 03:17:00,61.2,54.0,30.17,ESE,113,0.0,0.0,77,0.00,,,0.00,WUHU216TE923,2013-06-04 07:17:00,
2013-06-04 03:22:00,60.8,53.6,30.17,ESE,113,0.0,0.0,77,0.00,,,0.00,WUHU216TE923,2013-06-04 07:22:00,
2013-06-04 03:27:00,61.0,53.8,30.16,ESE,113,0.0,0.0,77,0.00,,,0.00,WUHU216TE923,2013-06-04 07:27:00,
2013-06-04 03:32:00,61.0,53.8,30.16,ESE,113,0.0,0.0,77,0.00,,,0.00,WUHU216TE923,2013-06-04 07:32:00,
2013-06-04 03:37:00,60.8,53.6,30.16,ESE,113,0.0,0.0,77,0.00,,,0.00,WUHU216TE923,2013-06-04 07:37:00,
2013-06-04 03:42:00,60.8,53.6,30.16,ESE,113,0.0,0.0,77,0.00,,,0.00,WUHU216TE923,2013-06-04 07:42:00,
2013-06-04 03:47:00,60.6,53.8,30.13,ESE,113,0.0,0.0,78,0.00,,,0.00,WUHU216TE923,2013-06-04 07:47:00,
2013-06-04 03:52:00,60.6,53.8,30.13,ESE,113,0.0,0.0,78,0.00,,,0.00,WUHU216TE923,2013-06-04 07:52:00,
2013-06-04 03:57:00,60.6,53.8,30.13,ESE,113,0.0,0.0,78,0.00,,,0.00,WUHU216TE923,2013-06-04 07:57:00,
2013-06-04 04:02:00,60.6,53.8,30.13,ESE,113,0.0,0.0,78,0.00,,,0.00,WUHU216TE923,2013-06-04 08:02:00,
2013-06-04 04:07:00,60.6,53.8,30.15,ESE,113,0.0,0.0,78,0.00,,,0.00,WUHU216TE923,2013-06-04 08:07:00,
2013-06-04 04:12:00,60.6,53.8,30.15,ESE,113,0.0,0.0,78,0.00,,,0.00,WUHU216TE923,2013-06-04 08:12:00,
2013-06-04 04:17:00,60.8,54.0,30.15,ESE,113,0.0,0.0,78,0.00,,,0.00,WUHU216TE923,2013-06-04 08:17:00,
2013-06-04 04:22:00,60.8,54.3,30.15,ESE,113,0.0,0.0,79,0.00,,,0.00,WUHU216TE923,2013-06-04 08:22:00,
2013-06-04 04:27:00,60.8,54.3,30.16,ESE,113,0.0,0.0,79,0.00,,,0.00,WUHU216TE923,2013-06-04 08:27:00,
2013-06-04 04:32:00,60.8,54.3,30.16,ESE,113,0.0,0.0,79,0.00,,,0.00,WUHU216TE923,2013-06-04 08:32:00,
2013-06-04 04:37:00,60.6,54.1,30.16,ESE,113,0.0,0.0,79,0.00,,,0.00,WUHU216TE923,2013-06-04 08:37:00,
2013-06-04 04:42:00,60.8,54.3,30.16,ESE,113,0.0,0.0,79,0.00,,,0.00,WUHU216TE923,2013-06-04 08:42:00,
2013-06-04 04:47:00,60.8,54.6,30.18,ESE,113,0.0,0.0,80,0.00,,,0.00,WUHU216TE923,2013-06-04 08:47:00,
2013-06-04 04:52:00,60.6,54.5,30.18,ESE,113,0.0,0.0,80,0.00,,,0.00,WUHU216TE923,2013-06-04 08:52:00,
2013-06-04 04:57:00,60.6,54.8,30.18,ESE,113,0.0,0.0,81,0.00,,,0.00,WUHU216TE923,2013-06-04 08:57:00,
2013-06-04 05:02:00,60.6,54.8,30.18,ESE,113,0.0,0.0,81,0.00,,,0.00,WUHU216TE923,2013-06-04 09:02:00,
2013-06-04 05:07:00,60.8,54.6,30.21,ESE,113,0.0,0.0,80,0.00,,,0.00,WUHU216TE923,2013-06-04 09:07:00,
2013-06-04 05:12:00,60.8,54.6,30.21,ESE,113,0.0,0.0,80,0.00,,,0.00,WUHU216TE923,2013-06-04 09:12:00,
2013-06-04 05:17:00,61.0,54.8,30.21,ESE,113,0.0,0.0,80,0.00,,,0.00,WUHU216TE923,2013-06-04 09:17:00,
2013-06-04 05:22:00,61.0,54.8,30.21,ESE,113,0.0,0.0,80,0.00,,,0.00,WUHU216TE923,2013-06-04 09:22:00,
2013-06-04 05:27:00,61.0,55.2,30.18,ESE,113,0.0,0.0,81,0.00,,,0.00,WUHU216TE923,2013-06-04 09:27:00,
2013-06-04 05:32:00,61.0,55.2,30.18,ESE,113,0.0,0.0,81,0.00,,,0.00,WUHU216TE923,2013-06-04 09:32:00,
2013-06-04 05:37:00,61.0,55.2,30.18,ESE,113,0.0,0.0,81,0.00,,,0.00,WUHU216TE923,2013-06-04 09:37:00,
2013-06-04 05:42:00,61.0,55.2,30.18,ESE,113,0.0,0.0,81,0.00,,,0.00,WUHU216TE923,2013-06-04 09:42:00,
2013-06-04 05:47:00,61.0,55.2,30.18,East,90,0.0,0.0,81,0.00,,,0.00,WUHU216TE923,2013-06-04 09:47:00,
2013-06-04 05:52:00,61.0,55.5,30.18,ENE,68,0.1,0.1,82,0.00,,,0.00,WUHU216TE923,2013-06-04 09:52:00,
2013-06-04 05:57:00,61.0,55.5,30.18,ENE,68,0.0,0.1,82,0.00,,,0.00,WUHU216TE923,2013-06-04 09:57:00,
2013-06-04 06:02:00,61.2,55.7,30.18,ENE,68,0.0,0.0,82,0.00,,,0.00,WUHU216TE923,2013-06-04 10:02:00,
2013-06-04 06:07:00,61.2,55.7,30.16,ENE,68,0.0,0.0,82,0.00,,,0.00,WUHU216TE923,2013-06-04 10:07:00,
2013-06-04 06:12:00,61.2,55.7,30.16,ENE,68,0.0,0.0,82,0.00,,,0.00,WUHU216TE923,2013-06-04 10:12:00,
2013-06-04 06:17:00,61.2,55.7,30.16,ENE,68,0.0,0.0,82,0.00,,,0.00,WUHU216TE923,2013-06-04 10:17:00,
2013-06-04 06:22:00,61.3,55.8,30.16,ENE,68,0.0,0.0,82,0.00,,,0.00,WUHU216TE923,2013-06-04 10:22:00,
2013-06-04 06:27:00,61.2,55.7,30.16,ENE,68,0.0,0.0,82,0.00,,,0.00,WUHU216TE923,2013-06-04 10:27:00,
2013-06-04 06:32:00,61.2,55.7,30.16,ENE,68,0.0,0.0,82,0.00,,,0.00,WUHU216TE923,2013-06-04 10:32:00,
2013-06-04 06:37:00,61.0,55.5,30.16,ENE,68,0.0,0.0,82,0.00,,,0.00,WUHU216TE923,2013-06-04 10:37:00,
2013-06-04 06:42:00,61.0,55.5,30.16,ESE,113,0.0,0.0,82,0.00,,,0.00,WUHU216TE923,2013-06-04 10:42:00,
2013-06-04 06:47:00,61.0,55.8,30.15,ENE,68,0.0,0.0,83,0.00,,,0.00,WUHU216TE923,2013-06-04 10:47:00,
2013-06-04 06:52:00,61.0,55.8,30.15,East,90,0.0,0.0,83,0.00,,,0.00,WUHU216TE923,2013-06-04 10:52:00,
2013-06-04 06:57:00,61.0,55.8,30.15,ENE,68,0.0,0.0,83,0.00,,,0.00,WUHU216TE923,2013-06-04 10:57:00,
2013-06-04 07:02:00,61.0,55.8,30.15,East,90,0.0,0.0,83,0.00,,,0.00,WUHU216TE923,2013-06-04 11:02:00,
2013-06-04 07:07:00,61.0,55.8,30.14,East,90,0.0,0.0,83,0.00,,,0.00,WUHU216TE923,2013-06-04 11:07:00,
2013-06-04 07:12:00,61.0,55.8,30.14,ENE,68,0.0,0.0,83,0.00,,,0.00,WUHU216TE923,2013-06-04 11:12:00,
2013-06-04 07:17:00,61.0,55.8,30.14,ENE,68,0.0,0.0,83,0.00,,,0.00,WUHU216TE923,2013-06-04 11:17:00,
2013-06-04 07:22:00,61.0,55.8,30.14,ENE,68,0.0,0.0,83,0.00,,,0.00,WUHU216TE923,2013-06-04 11:22:00,
2013-06-04 07:27:00,61.0,55.8,30.14,ENE,68,0.0,0.0,83,0.00,,,0.00,WUHU216TE923,2013-06-04 11:27:00,
2013-06-04 07:32:00,61.0,55.8,30.14,ENE,68,0.0,0.0,83,0.00,,,0.00,WUHU216TE923,2013-06-04 11:32:00,
2013-06-04 07:37:00,61.2,56.0,30.14,ENE,68,0.0,0.0,83,0.00,,,0.00,WUHU216TE923,2013-06-04 11:37:00,
2013-06-04 07:42:00,61.2,56.0,30.14,ESE,113,0.1,1.1,83,0.00,,,0.00,WUHU216TE923,2013-06-04 11:42:00,
2013-06-04 07:47:00,61.3,56.1,30.14,East,90,0.1,1.7,83,0.00,,,0.00,WUHU216TE923,2013-06-04 11:47:00,
2013-06-04 07:52:00,61.3,56.1,30.14,East,90,0.2,1.7,83,0.00,,,0.00,WUHU216TE923,2013-06-04 11:52:00,
2013-06-04 07:57:00,61.3,56.1,30.14,ENE,68,0.3,0.3,83,0.00,,,0.00,WUHU216TE923,2013-06-04 11:57:00,
2013-06-04 08:02:00,61.5,56.3,30.14,East,90,0.2,0.3,83,0.00,,,0.00,WUHU216TE923,2013-06-04 12:02:00,
2013-06-04 08:07:00,61.7,56.5,30.13,ENE,68,0.2,0.2,83,0.00,,,0.00,WUHU216TE923,2013-06-04 12:07:00,
2013-06-04 08:12:00,61.7,56.2,30.13,ENE,68,0.2,0.2,82,0.00,,,0.00,WUHU216TE923,2013-06-04 12:12:00,
2013-06-04 08:17:00,61.9,56.4,30.13,ENE,68,0.0,0.2,82,0.00,,,0.00,WUHU216TE923,2013-06-04 12:17:00,
2013-06-04 08:22:00,62.1,56.6,30.13,ENE,68,0.3,1.5,82,0.00,,,0.00,WUHU216TE923,2013-06-04 12:22:00,
2013-06-04 08:27:00,62.1,56.6,30.14,ESE,113,0.3,1.5,82,0.00,,,0.00,WUHU216TE923,2013-06-04 12:27:00,
2013-06-04 08:32:00,61.9,56.4,30.14,East,90,0.3,1.2,82,0.00,,,0.00,WUHU216TE923,2013-06-04 12:32:00,
2013-06-04 08:37:00,61.7,56.2,30.14,East,90,0.4,1.2,82,0.00,,,0.00,WUHU216TE923,2013-06-04 12:37:00,
2013-06-04 08:42:00,61.7,56.2,30.14,East,90,0.4,1.2,82,0.00,,,0.00,WUHU216TE923,2013-06-04 12:42:00,
2013-06-04 08:47:00,62.2,56.7,30.15,ESE,113,0.3,1.8,82,0.00,,,0.00,WUHU216TE923,2013-06-04 12:47:00,
2013-06-04 08:52:00,62.6,56.7,30.15,East,90,0.6,1.8,81,0.00,,,0.00,WUHU216TE923,2013-06-04 12:52:00,
2013-06-04 08:57:00,62.6,56.7,30.15,East,90,0.5,1.4,81,0.00,,,0.00,WUHU216TE923,2013-06-04 12:57:00,
2013-06-04 09:02:00,63.1,57.2,30.15,WSW,248,0.1,0.5,81,0.00,,,0.00,WUHU216TE923,2013-06-04 13:02:00,
2013-06-04 09:07:00,63.3,57.4,30.16,WSW,248,0.0,0.1,81,0.00,,,0.00,WUHU216TE923,2013-06-04 13:07:00,
2013-06-04 09:12:00,63.7,57.8,30.16,SW,225,0.0,0.0,81,0.00,,,0.00,WUHU216TE923,2013-06-04 13:12:00,
2013-06-04 09:17:00,63.7,57.8,30.16,ESE,113,0.0,1.4,81,0.00,,,0.00,WUHU216TE923,2013-06-04 13:17:00,
2013-06-04 09:22:00,64.0,57.8,30.16,SE,135,0.1,1.4,80,0.00,,,0.00,WUHU216TE923,2013-06-04 13:22:00,
2013-06-04 09:27:00,64.0,57.8,30.16,SW,225,0.2,1.0,80,0.00,,,0.00,WUHU216TE923,2013-06-04 13:27:00,
2013-06-04 09:32:00,64.4,58.2,30.16,WSW,248,0.2,0.2,80,0.00,,,0.00,WUHU216TE923,2013-06-04 13:32:00,
2013-06-04 09:37:00,65.1,58.5,30.16,SW,225,0.1,0.2,79,0.00,,,0.00,WUHU216TE923,2013-06-04 13:37:00,
2013-06-04 09:42:00,66.6,59.3,30.16,East,90,0.3,1.4,77,0.00,,,0.00,WUHU216TE923,2013-06-04 13:42:00,
2013-06-04 09:47:00,67.3,59.6,30.17,East,90,0.5,1.4,76,0.00,,,0.00,WUHU216TE923,2013-06-04 13:47:00,
2013-06-04 09:52:00,67.8,59.3,30.17,NE,45,0.8,1.1,74,0.00,,,0.00,WUHU216TE923,2013-06-04 13:52:00,
2013-06-04 09:57:00,68.4,59.6,30.17,NE,45,0.5,0.8,73,0.00,,,0.00,WUHU216TE923,2013-06-04 13:57:00,
2013-06-04 10:02:00,69.3,59.7,30.17,ENE,68,0.4,1.6,71,0.00,,,0.00,WUHU216TE923,2013-06-04 14:02:00,
2013-06-04 10:07:00,69.4,59.0,30.16,East,90,1.0,1.7,69,0.00,,,0.00,WUHU216TE923,2013-06-04 14:07:00,
2013-06-04 10:12:00,70.5,59.6,30.16,ESE,113,1.1,1.7,68,0.00,,,0.00,WUHU216TE923,2013-06-04 14:12:00,
2013-06-04 10:15:00,70.7,59.4,30.16,ESE,113,0.6,2.0,67,0.00,,,0.00,WUHU216TE923,2013-06-04 14:15:00,
2013-06-04 10:17:00,70.7,59.4,30.16,ESE,113,0.6,2.0,67,0.00,,,0.00,WUHU216TE923,2013-06-04 14:17:00,
2013-06-04 10:22:00,70.7,59.4,30.16,ESE,113,0.6,2.0,67,0.00,,,0.00,WUHU216TE923,2013-06-04 14:22:00,
2013-06-04 10:27:00,71.6,59.4,30.16,ESE,113,0.6,0.6,65,0.00,,,0.00,WUHU216TE923,2013-06-04 14:27:00,
2013-06-04 10:32:00,71.8,59.2,30.16,ENE,68,0.4,2.2,64,0.00,,,0.00,WUHU216TE923,2013-06-04 14:32:00,
2013-06-04 10:37:00,72.3,59.2,30.16,ESE,113,0.5,2.2,63,0.00,,,0.00,WUHU216TE923,2013-06-04 14:37:00,
2013-06-04 10:42:00,72.9,59.3,30.16,ENE,68,0.6,0.6,62,0.00,,,0.00,WUHU216TE923,2013-06-04 14:42:00,
2013-06-04 10:47:00,73.6,59.1,30.15,ENE,68,0.3,1.0,60,0.00,,,0.00,WUHU216TE923,2013-06-04 14:47:00,
2013-06-04 10:52:00,73.4,57.9,30.15,ENE,68,0.1,1.0,58,0.00,,,0.00,WUHU216TE923,2013-06-04 14:52:00,
2013-06-04 10:57:00,73.8,57.8,30.15,ESE,113,0.5,1.6,57,0.00,,,0.00,WUHU216TE923,2013-06-04 14:57:00,
2013-06-04 11:02:00,74.3,57.8,30.15,East,90,0.9,1.6,56,0.00,,,0.00,WUHU216TE923,2013-06-04 15:02:00,
2013-06-04 11:07:00,74.1,57.1,30.15,ENE,68,0.9,1.9,55,0.00,,,0.00,WUHU216TE923,2013-06-04 15:07:00,
2013-06-04 11:12:00,74.8,56.7,30.15,SW,225,1.3,1.9,53,0.00,,,0.00,WUHU216TE923,2013-06-04 15:12:00,
2013-06-04 11:17:00,75.2,57.0,30.15,WSW,248,1.0,1.4,53,0.00,,,0.00,WUHU216TE923,2013-06-04 15:17:00,
2013-06-04 11:22:00,74.8,56.1,30.15,SSE,158,0.1,1.5,52,0.00,,,0.00,WUHU216TE923,2013-06-04 15:22:00,
2013-06-04 11:27:00,75.6,55.7,30.14,ESE,113,0.7,1.5,50,0.00,,,0.00,WUHU216TE923,2013-06-04 15:27:00,
2013-06-04 11:32:00,75.6,56.3,30.14,ESE,113,0.6,1.3,51,0.00,,,0.00,WUHU216TE923,2013-06-04 15:32:00,
2013-06-04 11:37:00,76.3,56.9,30.14,ESE,113,0.1,0.6,51,0.00,,,0.00,WUHU216TE923,2013-06-04 15:37:00,
2013-06-04 11:42:00,76.8,56.3,30.14,ENE,68,0.3,0.3,49,0.00,,,0.00,WUHU216TE923,2013-06-04 15:42:00,
2013-06-04 11:47:00,77.5,56.3,30.14,ENE,68,0.3,0.3,48,0.00,,,0.00,WUHU216TE923,2013-06-04 15:47:00,
2013-06-04 11:52:00,77.9,56.1,30.14,ENE,68,0.6,2.0,47,0.00,,,0.00,WUHU216TE923,2013-06-04 15:52:00,
2013-06-04 11:57:00,78.3,55.2,30.14,ESE,113,1.2,2.0,45,0.00,,,0.00,WUHU216TE923,2013-06-04 15:57:00,
2013-06-04 12:02:00,78.4,54.7,30.14,NE,45,1.5,1.7,44,0.00,,,0.00,WUHU216TE923,2013-06-04 16:02:00,
2013-06-04 12:07:00,79.3,56.1,30.14,NE,45,1.0,1.5,45,0.00,,,0.00,WUHU216TE923,2013-06-04 16:07:00,
2013-06-04 12:12:00,79.3,56.1,30.14,NE,45,1.0,1.0,45,0.00,,,0.00,WUHU216TE923,2013-06-04 16:12:00,
2013-06-04 12:17:00,79.5,55.0,30.14,NE,45,1.0,1.0,43,0.00,,,0.00,WUHU216TE923,2013-06-04 16:17:00,
2013-06-04 12:22:00,79.3,53.5,30.14,East,90,1.0,1.0,41,0.00,,,0.00,WUHU216TE923,2013-06-04 16:22:00,
2013-06-04 12:27:00,79.0,53.9,30.14,East,90,0.7,1.0,42,0.00,,,0.00,WUHU216TE923,2013-06-04 16:27:00,
2013-06-04 12:32:00,78.3,53.9,30.14,West,270,0.2,0.7,43,0.00,,,0.00,WUHU216TE923,2013-06-04 16:32:00,
2013-06-04 12:37:00,78.6,54.9,30.14,NE,45,0.4,1.5,44,0.00,,,0.00,WUHU216TE923,2013-06-04 16:37:00,
2013-06-04 12:42:00,78.1,55.0,30.14,ENE,68,0.5,1.5,45,0.00,,,0.00,WUHU216TE923,2013-06-04 16:42:00,
2013-06-04 12:47:00,78.3,55.2,30.12,SW,225,0.4,0.5,45,0.00,,,0.00,WUHU216TE923,2013-06-04 16:47:00,
2013-06-04 12:52:00,79.2,53.4,30.12,SW,225,0.5,0.5,41,0.00,,,0.00,WUHU216TE923,2013-06-04 16:52:00,
2013-06-04 12:57:00,78.8,54.4,30.12,East,90,0.6,0.6,43,0.00,,,0.00,WUHU216TE923,2013-06-04 16:57:00,
2013-06-04 13:02:00,78.4,55.3,30.12,NW,315,0.2,0.6,45,0.00,,,0.00,WUHU216TE923,2013-06-04 17:02:00,
2013-06-04 13:07:00,78.8,54.4,30.12,SW,225,0.2,0.2,43,0.00,,,0.00,WUHU216TE923,2013-06-04 17:07:00,
2013-06-04 13:12:00,79.5,53.0,30.12,ESE,113,0.3,1.0,40,0.00,,,0.00,WUHU216TE923,2013-06-04 17:12:00,
2013-06-04 13:17:00,80.1,53.5,30.12,ESE,113,0.3,1.0,40,0.00,,,0.00,WUHU216TE923,2013-06-04 17:17:00,
2013-06-04 13:22:00,80.6,53.3,30.12,SE,135,0.5,1.0,39,0.00,,,0.00,WUHU216TE923,2013-06-04 17:22:00,
2013-06-04 13:27:00,81.0,53.6,30.12,West,270,0.2,1.0,39,0.00,,,0.00,WUHU216TE923,2013-06-04 17:27:00,
2013-06-04 13:32:00,79.9,51.2,30.12,South,180,0.7,1.5,37,0.00,,,0.00,WUHU216TE923,2013-06-04 17:32:00,
2013-06-04 13:39:00,78.8,51.7,30.12,West,270,0.8,1.5,39,0.00,,,0.00,WUHU216TE923,2013-06-04 17:39:00,
2013-06-04 13:44:00,79.3,52.8,30.12,SW,225,0.3,0.8,40,0.00,,,0.00,WUHU216TE923,2013-06-04 17:44:00,
2013-06-04 13:49:00,79.5,53.0,30.12,NE,45,0.3,1.2,40,0.00,,,0.00,WUHU216TE923,2013-06-04 17:49:00,
2013-06-04 13:54:00,80.6,53.3,30.12,ENE,68,0.3,1.2,39,0.00,,,0.00,WUHU216TE923,2013-06-04 17:54:00,
2013-06-04 13:59:00,80.2,53.6,30.12,ENE,68,0.2,1.0,40,0.00,,,0.00,WUHU216TE923,2013-06-04 17:59:00,
2013-06-04 14:04:00,79.5,53.0,30.12,SW,225,0.2,0.2,40,0.00,,,0.00,WUHU216TE923,2013-06-04 18:04:00,
2013-06-04 14:09:00,80.6,52.5,30.11,ESE,113,0.3,3.9,38,0.00,,,0.00,WUHU216TE923,2013-06-04 18:09:00,
2013-06-04 14:14:00,81.3,53.9,30.11,WSW,248,0.6,3.9,39,0.00,,,0.00,WUHU216TE923,2013-06-04 18:14:00,
2013-06-04 14:19:00,81.3,52.4,30.11,South,180,0.7,0.7,37,0.00,,,0.00,WUHU216TE923,2013-06-04 18:19:00,
2013-06-04 14:24:00,81.9,53.0,30.11,West,270,0.4,1.7,37,0.00,,,0.00,WUHU216TE923,2013-06-04 18:24:00,
2013-06-04 14:29:00,80.8,52.7,30.10,WSW,248,0.5,1.7,38,0.00,,,0.00,WUHU216TE923,2013-06-04 18:29:00,
2013-06-04 14:34:00,80.8,52.7,30.10,West,270,0.6,1.0,38,0.00,,,0.00,WUHU216TE923,2013-06-04 18:34:00,
2013-06-04 14:39:00,81.7,53.5,30.10,NW,315,1.0,1.5,38,0.00,,,0.00,WUHU216TE923,2013-06-04 18:39:00,
2013-06-04 14:44:00,81.9,53.7,30.10,NE,45,1.6,1.6,38,0.00,,,0.00,WUHU216TE923,2013-06-04 18:44:00,
2013-06-04 14:49:00,82.0,53.1,30.09,ESE,113,1.3,1.6,37,0.00,,,0.00,WUHU216TE923,2013-06-04 18:49:00,
2013-06-04 14:54:00,81.9,53.0,30.09,SW,225,1.0,1.5,37,0.00,,,0.00,WUHU216TE923,2013-06-04 18:54:00,
2013-06-04 14:59:00,81.9,52.2,30.09,South,180,1.0,1.5,36,0.00,,,0.00,WUHU216TE923,2013-06-04 18:59:00,
2013-06-04 15:04:00,82.0,52.3,30.09,ENE,68,0.8,2.9,36,0.00,,,0.00,WUHU216TE923,2013-06-04 19:04:00,
2013-06-04 15:09:00,82.0,52.3,30.09,SW,225,1.0,2.9,36,0.00,,,0.00,WUHU216TE923,2013-06-04 19:09:00,
2013-06-04 15:14:00,82.2,52.5,30.09,SE,135,1.1,2.2,36,0.00,,,0.00,WUHU216TE923,2013-06-04 19:14:00,
2013-06-04 15:19:00,82.0,50.7,30.09,SSW,203,0.7,2.0,34,0.00,,,0.00,WUHU216TE923,2013-06-04 19:19:00,
2013-06-04 15:24:00,82.2,52.5,30.09,NW,315,1.0,2.0,36,0.00,,,0.00,WUHU216TE923,2013-06-04 19:24:00,
2013-06-04 15:29:00,82.6,52.8,30.08,South,180,0.9,1.2,36,0.00,,,0.00,WUHU216TE923,2013-06-04 19:29:00,
2013-06-04 15:34:00,82.6,52.0,30.08,SSW,203,0.7,2.0,35,0.00,,,0.00,WUHU216TE923,2013-06-04 19:34:00,
2013-06-04 15:39:00,82.8,51.4,30.08,WSW,248,0.8,2.0,34,0.00,,,0.00,WUHU216TE923,2013-06-04 19:39:00,
2013-06-04 15:44:00,82.6,50.4,30.08,WSW,248,0.6,1.8,33,0.00,,,0.00,WUHU216TE923,2013-06-04 19:44:00,
2013-06-04 15:49:00,82.8,50.6,30.08,WSW,248,0.7,1.8,33,0.00,,,0.00,WUHU216TE923,2013-06-04 19:49:00,
2013-06-04 15:54:00,82.6,48.8,30.08,SSW,203,1.0,1.0,31,0.00,,,0.00,WUHU216TE923,2013-06-04 19:54:00,
2013-06-04 15:59:00,82.4,49.4,30.08,WNW,293,0.8,1.9,32,0.00,,,0.00,WUHU216TE923,2013-06-04 19:59:00,
2013-06-04 16:04:00,82.4,50.3,30.08,SSW,203,0.8,1.9,33,0.00,,,0.00,WUHU216TE923,2013-06-04 20:04:00,
2013-06-04 16:09:00,82.6,50.4,30.05,NW,315,1.0,2.9,33,0.00,,,0.00,WUHU216TE923,2013-06-04 20:09:00,
2013-06-04 16:14:00,82.6,49.6,30.05,West,270,1.3,2.9,32,0.00,,,0.00,WUHU216TE923,2013-06-04 20:14:00,
2013-06-04 16:19:00,82.6,49.6,30.05,NW,315,1.4,2.0,32,0.00,,,0.00,WUHU216TE923,2013-06-04 20:19:00,
2013-06-04 16:24:00,82.0,49.9,30.05,SSW,203,1.2,3.3,33,0.00,,,0.00,WUHU216TE923,2013-06-04 20:24:00,
2013-06-04 16:29:00,82.0,50.7,30.06,North,0,1.3,3.3,34,0.00,,,0.00,WUHU216TE923,2013-06-04 20:29:00,
2013-06-04 16:34:00,82.0,50.7,30.06,SSW,203,1.0,1.6,34,0.00,,,0.00,WUHU216TE923,2013-06-04 20:34:00,
2013-06-04 16:39:00,81.7,50.5,30.06,SW,225,0.9,1.6,34,0.00,,,0.00,WUHU216TE923,2013-06-04 20:39:00,
2013-06-04 16:44:00,82.0,50.7,30.06,NW,315,0.9,1.5,34,0.00,,,0.00,WUHU216TE923,2013-06-04 20:44:00,
2013-06-04 16:49:00,81.7,50.5,30.06,South,180,0.7,1.4,34,0.00,,,0.00,WUHU216TE923,2013-06-04 20:49:00,
2013-06-04 16:54:00,81.7,50.5,30.06,SW,225,0.6,0.7,34,0.00,,,0.00,WUHU216TE923,2013-06-04 20:54:00,
2013-06-04 16:59:00,81.5,50.3,30.06,South,180,0.5,1.3,34,0.00,,,0.00,WUHU216TE923,2013-06-04 20:59:00,
2013-06-04 17:04:00,81.1,50.7,30.06,SSW,203,0.5,2.1,35,0.00,,,0.00,WUHU216TE923,2013-06-04 21:04:00,
2013-06-04 17:09:00,81.1,49.9,30.06,SW,225,0.7,2.1,34,0.00,,,0.00,WUHU216TE923,2013-06-04 21:09:00,
2013-06-04 17:14:00,81.0,49.8,30.06,NW,315,0.4,1.0,34,0.00,,,0.00,WUHU216TE923,2013-06-04 21:14:00,
2013-06-04 17:19:00,81.1,49.9,30.06,SE,135,0.4,1.3,34,0.00,,,0.00,WUHU216TE923,2013-06-04 21:19:00,
2013-06-04 17:24:00,80.8,49.7,30.06,SW,225,0.7,1.3,34,0.00,,,0.00,WUHU216TE923,2013-06-04 21:24:00,
2013-06-04 17:29:00,80.8,50.5,30.05,WSW,248,0.5,0.7,35,0.00,,,0.00,WUHU216TE923,2013-06-04 21:29:00,
2013-06-04 17:34:00,80.8,50.5,30.05,WSW,248,0.2,0.5,35,0.00,,,0.00,WUHU216TE923,2013-06-04 21:34:00,
2013-06-04 17:39:00,80.6,50.3,30.05,WSW,248,0.0,0.2,35,0.00,,,0.00,WUHU216TE923,2013-06-04 21:39:00,
2013-06-04 17:44:00,80.4,50.9,30.05,SW,225,0.6,1.7,36,0.00,,,0.00,WUHU216TE923,2013-06-04 21:44:00,
2013-06-04 17:49:00,80.4,50.9,30.04,SW,225,0.8,1.7,36,0.00,,,0.00,WUHU216TE923,2013-06-04 21:49:00,
2013-06-04 17:54:00,80.4,50.9,30.04,West,270,0.5,0.8,36,0.00,,,0.00,WUHU216TE923,2013-06-04 21:54:00,
2013-06-04 17:59:00,80.4,50.9,30.04,NW,315,0.3,1.1,36,0.00,,,0.00,WUHU216TE923,2013-06-04 21:59:00,
2013-06-04 18:04:00,80.4,51.6,30.04,West,270,0.2,1.2,37,0.00,,,0.00,WUHU216TE923,2013-06-04 22:04:00,
2013-06-04 18:09:00,80.4,50.9,29.99,NNE,23,0.2,1.2,36,0.00,,,0.00,WUHU216TE923,2013-06-04 22:09:00,
2013-06-04 18:14:00,80.2,50.7,29.99,NW,315,0.2,0.2,36,0.00,,,0.00,WUHU216TE923,2013-06-04 22:14:00,
2013-06-04 18:19:00,80.2,50.7,29.99,NW,315,0.1,0.2,36,0.00,,,0.00,WUHU216TE923,2013-06-04 22:19:00,
2013-06-04 18:24:00,79.9,49.7,29.99,West,270,0.2,0.2,35,0.00,,,0.00,WUHU216TE923,2013-06-04 22:24:00,
2013-06-04 18:29:00,79.7,50.3,29.96,WNW,293,0.2,1.1,36,0.00,,,0.00,WUHU216TE923,2013-06-04 22:29:00,
2013-06-04 18:34:00,79.5,50.1,29.96,NW,315,0.1,1.1,36,0.00,,,0.00,WUHU216TE923,2013-06-04 22:34:00,
2013-06-04 18:39:00,79.3,49.9,29.96,NW,315,0.1,0.1,36,0.00,,,0.00,WUHU216TE923,2013-06-04 22:39:00,
2013-06-04 18:44:00,79.0,48.9,29.96,SW,225,0.1,0.1,35,0.00,,,0.00,WUHU216TE923,2013-06-04 22:44:00,
2013-06-04 18:49:00,79.0,49.6,29.95,NW,315,0.1,0.1,36,0.00,,,0.00,WUHU216TE923,2013-06-04 22:49:00,
2013-06-04 18:54:00,78.8,50.2,29.95,WSW,248,0.2,0.2,37,0.00,,,0.00,WUHU216TE923,2013-06-04 22:54:00,
2013-06-04 18:59:00,78.6,50.0,29.95,NW,315,0.2,0.2,37,0.00,,,0.00,WUHU216TE923,2013-06-04 22:59:00,
2013-06-04 19:04:00,78.6,50.0,29.95,NW,315,0.1,0.2,37,0.00,,,0.00,WUHU216TE923,2013-06-04 23:04:00,
2013-06-04 19:09:00,78.4,49.8,29.98,WSW,248,0.2,0.2,37,0.00,,,0.00,WUHU216TE923,2013-06-04 23:09:00,
2013-06-04 19:14:00,78.3,50.5,29.98,SW,225,0.2,0.2,38,0.00,,,0.00,WUHU216TE923,2013-06-04 23:14:00,
2013-06-04 19:19:00,77.9,50.8,29.98,SW,225,0.0,0.2,39,0.00,,,0.00,WUHU216TE923,2013-06-04 23:19:00,
2013-06-04 19:24:00,77.7,50.7,29.98,NW,315,0.0,0.0,39,0.00,,,0.00,WUHU216TE923,2013-06-04 23:24:00,
2013-06-04 19:29:00,77.5,50.5,30.00,NW,315,0.0,0.0,39,0.00,,,0.00,WUHU216TE923,2013-06-04 23:29:00,
2013-06-04 19:34:00,77.2,50.2,30.00,NW,315,0.0,0.0,39,0.00,,,0.00,WUHU216TE923,2013-06-04 23:34:00,
2013-06-04 19:39:00,77.0,50.7,30.00,WSW,248,0.0,0.0,40,0.00,,,0.00,WUHU216TE923,2013-06-04 23:39:00,
2013-06-04 19:44:00,76.8,51.2,30.00,WSW,248,0.0,0.0,41,0.00,,,0.00,WUHU216TE923,2013-06-04 23:44:00,
2013-06-04 19:49:00,76.6,51.1,29.99,WSW,248,0.0,0.0,41,0.00,,,0.00,WUHU216TE923,2013-06-04 23:49:00,
2013-06-04 19:54:00,76.5,51.6,29.99,WSW,248,0.0,0.0,42,0.00,,,0.00,WUHU216TE923,2013-06-04 23:54:00,
2013-06-04 19:59:00,76.1,51.3,29.99,WSW,248,0.0,0.0,42,0.00,,,0.00,WUHU216TE923,2013-06-04 23:59:00,
2013-06-04 20:04:00,75.7,51.6,29.99,WSW,248,0.0,0.0,43,0.00,,,0.00,WUHU216TE923,2013-06-05 00:04:00,
2013-06-04 20:09:00,75.7,52.2,29.98,WSW,248,0.0,0.0,44,0.00,,,0.00,WUHU216TE923,2013-06-05 00:09:00,
2013-06-04 20:14:00,75.2,52.4,29.98,WSW,248,0.0,0.0,45,0.00,,,0.00,WUHU216TE923,2013-06-05 00:14:00,
2013-06-04 20:19:00,74.8,52.0,29.98,WSW,248,0.0,0.0,45,0.00,,,0.00,WUHU216TE923,2013-06-05 00:19:00,
2013-06-04 20:24:00,74.7,51.9,29.98,WSW,248,0.0,0.0,45,0.00,,,0.00,WUHU216TE923,2013-06-05 00:24:00,
2013-06-04 20:29:00,74.5,52.4,29.99,WSW,248,0.0,0.0,46,0.00,,,0.00,WUHU216TE923,2013-06-05 00:29:00,
2013-06-04 20:34:00,73.9,52.4,29.99,WSW,248,0.0,0.0,47,0.00,,,0.00,WUHU216TE923,2013-06-05 00:34:00,
2013-06-04 20:39:00,73.8,52.3,29.99,WSW,248,0.0,0.0,47,0.00,,,0.00,WUHU216TE923,2013-06-05 00:39:00,
2013-06-04 20:44:00,73.4,53.1,29.99,WSW,248,0.0,0.0,49,0.00,,,0.00,WUHU216TE923,2013-06-05 00:44:00,
2013-06-04 20:49:00,73.0,53.9,30.01,WSW,248,0.0,0.0,51,0.00,,,0.00,WUHU216TE923,2013-06-05 00:49:00,
2013-06-04 20:54:00,72.1,53.1,30.01,WSW,248,0.0,0.0,51,0.00,,,0.00,WUHU216TE923,2013-06-05 00:54:00,
2013-06-04 20:59:00,72.1,53.6,30.01,WSW,248,0.0,0.0,52,0.00,,,0.00,WUHU216TE923,2013-06-05 00:59:00,
2013-06-04 21:04:00,71.6,53.7,30.01,WSW,248,0.0,0.0,53,0.00,,,0.00,WUHU216TE923,2013-06-05 01:04:00,
2013-06-04 21:09:00,71.4,54.0,29.98,WSW,248,0.0,0.0,54,0.00,,,0.00,WUHU216TE923,2013-06-05 01:09:00,
2013-06-04 21:14:00,70.7,53.9,29.98,WSW,248,0.0,0.0,55,0.00,,,0.00,WUHU216TE923,2013-06-05 01:14:00,
2013-06-04 21:19:00,70.5,53.7,29.98,WSW,248,0.0,0.0,55,0.00,,,0.00,WUHU216TE923,2013-06-05 01:19:00,
2013-06-04 21:24:00,70.5,54.2,29.98,WSW,248,0.0,0.0,56,0.00,,,0.00,WUHU216TE923,2013-06-05 01:24:00,
2013-06-04 21:29:00,70.0,53.7,29.97,WSW,248,0.0,0.0,56,0.00,,,0.00,WUHU216TE923,2013-06-05 01:29:00,
2013-06-04 21:34:00,69.6,53.8,29.97,WSW,248,0.0,0.0,57,0.00,,,0.00,WUHU216TE923,2013-06-05 01:34:00,
2013-06-04 21:39:00,69.6,53.8,29.97,WSW,248,0.0,0.0,57,0.00,,,0.00,WUHU216TE923,2013-06-05 01:39:00,
2013-06-04 21:44:00,69.4,54.1,29.97,WSW,248,0.0,0.0,58,0.00,,,0.00,WUHU216TE923,2013-06-05 01:44:00,
2013-06-04 21:49:00,69.3,54.0,30.01,WSW,248,0.0,0.0,58,0.00,,,0.00,WUHU216TE923,2013-06-05 01:49:00,
2013-06-04 21:54:00,69.1,53.9,30.01,WSW,248,0.0,0.0,58,0.00,,,0.00,WUHU216TE923,2013-06-05 01:54:00,
2013-06-04 21:59:00,69.1,54.3,30.01,WSW,248,0.0,0.0,59,0.00,,,0.00,WUHU216TE923,2013-06-05 01:59:00,
2013-06-04 22:04:00,68.5,53.8,30.01,WSW,248,0.0,0.0,59,0.00,,,0.00,WUHU216TE923,2013-06-05 02:04:00,
2013-06-04 22:09:00,68.4,54.1,30.00,WSW,248,0.0,0.0,60,0.00,,,0.00,WUHU216TE923,2013-06-05 02:09:00,
2013-06-04 22:14:00,68.0,54.2,30.00,WSW,248,0.0,0.0,61,0.00,,,0.00,WUHU216TE923,2013-06-05 02:14:00,
2013-06-04 22:19:00,68.0,54.2,30.00,WSW,248,0.0,0.0,61,0.00,,,0.00,WUHU216TE923,2013-06-05 02:19:00,
2013-06-04 22:24:00,67.8,54.5,30.00,WSW,248,0.0,0.0,62,0.00,,,0.00,WUHU216TE923,2013-06-05 02:24:00,
2013-06-04 22:29:00,67.6,54.7,30.01,WSW,248,0.0,0.0,63,0.00,,,0.00,WUHU216TE923,2013-06-05 02:29:00,
2013-06-04 22:34:00,67.5,54.6,30.01,WSW,248,0.0,0.0,63,0.00,,,0.00,WUHU216TE923,2013-06-05 02:34:00,
2013-06-04 22:39:00,67.1,54.7,30.01,WSW,248,0.0,0.0,64,0.00,,,0.00,WUHU216TE923,2013-06-05 02:39:00,
2013-06-04 22:44:00,67.1,54.7,30.01,WSW,248,0.0,0.0,64,0.00,,,0.00,WUHU216TE923,2013-06-05 02:44:00,
2013-06-04 22:49:00,67.1,55.1,30.02,WSW,248,0.0,0.0,65,0.00,,,0.00,WUHU216TE923,2013-06-05 02:49:00,
2013-06-04 22:54:00,66.7,54.7,30.02,WSW,248,0.0,0.0,65,0.00,,,0.00,WUHU216TE923,2013-06-05 02:54:00,
2013-06-04 22:59:00,66.4,54.9,30.02,WSW,248,0.0,0.0,66,0.00,,,0.00,WUHU216TE923,2013-06-05 02:59:00,
2013-06-04 23:04:00,66.4,54.9,30.02,WSW,248,0.0,0.0,66,0.00,,,0.00,WUHU216TE923,2013-06-05 03:04:00,
2013-06-04 23:09:00,66.0,54.9,30.00,WSW,248,0.0,0.0,67,0.00,,,0.00,WUHU216TE923,2013-06-05 03:09:00,
2013-06-04 23:14:00,66.2,55.1,30.00,WSW,248,0.0,0.0,67,0.00,,,0.00,WUHU216TE923,2013-06-05 03:14:00,
2013-06-04 23:19:00,66.0,55.3,30.00,WSW,248,0.0,0.0,68,0.00,,,0.00,WUHU216TE923,2013-06-05 03:19:00,
2013-06-04 23:24:00,65.8,55.1,30.00,ENE,68,0.0,0.0,68,0.00,,,0.00,WUHU216TE923,2013-06-05 03:24:00,
2013-06-04 23:29:00,65.8,55.1,30.02,ENE,68,0.0,0.0,68,0.00,,,0.00,WUHU216TE923,2013-06-05 03:29:00,
2013-06-04 23:34:00,65.8,55.1,30.02,ENE,68,0.0,0.0,68,0.00,,,0.00,WUHU216TE923,2013-06-05 03:34:00,
2013-06-04 23:39:00,65.8,55.1,30.02,ENE,68,0.0,0.0,68,0.00,,,0.00,WUHU216TE923,2013-06-05 03:39:00,
2013-06-04 23:44:00,65.8,55.5,30.02,ENE,68,0.0,0.0,69,0.00,,,0.00,WUHU216TE923,2013-06-05 03:44:00,
2013-06-04 23:49:00,65.7,55.4,30.02,ENE,68,0.0,0.0,69,0.00,,,0.00,WUHU216TE923,2013-06-05 03:49:00,
2013-06-04 23:54:00,65.7,55.8,30.02,ENE,68,0.0,0.0,70,0.00,,,0.00,WUHU216TE923,2013-06-05 03:54:00,
2013-06-04 23:59:00,65.5,55.6,30.02,ENE,68,0.0,0.0,70,0.00,,,0.00,WUHU216TE923,2013-06-05 03:59:00,